Time;durP1;ratioP1;P1;durP2;ratioP2;P2;SDS_P1;SDS_P2;PMS_P1;PMS_P2;Temp;Humidity;BMP_temperature;BMP_pressure;BME280_temperature;BME280_humidity;BME280_pressure;Samples;Min_cycle;Max_cycle;Signal;HPM_P1;HPM_P2
2022/07/01 00:02:01;;;;;;;1.27;0.60;;;24.20;62.20;;;;;;5010643;28;20569;-60
2022/07/01 00:04:27;;;;;;;0.47;0.47;;;24.20;62.20;;;;;;5012902;28;20038;-61
2022/07/01 00:06:56;;;;;;;3.13;0.80;;;24.20;62.10;;;;;;5016020;28;20053;-61
2022/07/01 00:09:21;;;;;;;0.80;0.50;;;24.20;62.10;;;;;;5015156;28;20097;-61
2022/07/01 00:11:47;;;;;;;1.33;0.55;;;24.20;62.10;;;;;;5010308;28;20118;-61
2022/07/01 00:14:13;;;;;;;0.75;0.68;;;24.20;62.10;;;;;;5013552;28;20394;-61
2022/07/01 00:16:39;;;;;;;0.80;0.50;;;24.20;62.10;;;;;;5013587;28;20041;-61
2022/07/01 00:19:04;;;;;;;1.10;0.65;;;24.20;62.00;;;;;;5012733;28;20096;-60
2022/07/01 00:21:31;;;;;;;0.77;0.43;;;24.20;62.00;;;;;;5014289;28;20818;-61
2022/07/01 00:23:57;;;;;;;1.40;0.80;;;24.20;62.00;;;;;;5009928;28;20041;-61
2022/07/01 00:26:23;;;;;;;0.40;0.40;;;24.20;62.00;;;;;;5010895;28;20933;-60
2022/07/01 00:28:48;;;;;;;1.33;0.60;;;24.20;62.00;;;;;;5010267;28;20124;-61
2022/07/01 00:31:14;;;;;;;0.65;0.43;;;24.20;62.00;;;;;;5012671;28;20492;-61
2022/07/01 00:33:40;;;;;;;0.50;0.40;;;24.20;61.90;;;;;;5012925;28;20363;-61
2022/07/01 00:36:05;;;;;;;0.52;0.50;;;24.20;62.70;;;;;;5014459;28;20416;-61
2022/07/01 00:38:31;;;;;;;0.88;0.80;;;24.20;61.90;;;;;;5012455;28;20124;-60
2022/07/01 00:40:57;;;;;;;0.90;0.50;;;24.20;61.90;;;;;;5011310;28;20464;-61
2022/07/01 00:43:24;;;;;;;1.30;0.60;;;24.20;61.90;;;;;;5013657;28;20042;-60
2022/07/01 00:45:51;;;;;;;0.93;0.60;;;24.20;62.00;;;;;;5012410;28;20053;-61
2022/07/01 00:48:19;;;;;;;0.90;0.60;;;24.20;62.00;;;;;;5012303;28;20128;-60
2022/07/01 00:50:46;;;;;;;1.15;0.80;;;24.20;61.90;;;;;;5005216;28;20052;-61
2022/07/01 00:53:15;;;;;;;2.60;1.00;;;24.10;61.90;;;;;;5012612;28;20029;-61
2022/07/01 00:55:41;;;;;;;1.02;0.90;;;24.20;61.90;;;;;;5012220;28;20041;-60
2022/07/01 00:58:08;;;;;;;1.85;0.90;;;24.10;61.80;;;;;;5011355;28;20037;-61
2022/07/01 01:00:36;;;;;;;1.67;0.93;;;24.20;61.80;;;;;;5027034;28;20439;-61
2022/07/01 01:03:01;;;;;;;1.77;1.20;;;24.10;61.80;;;;;;5008654;28;20510;-61
2022/07/01 01:05:27;;;;;;;1.55;1.38;;;24.10;61.70;;;;;;5011178;28;20121;-61
2022/07/01 01:07:53;;;;;;;2.72;1.60;;;24.10;61.70;;;;;;5010898;28;20060;-60
2022/07/01 01:10:19;;;;;;;2.13;1.50;;;24.20;61.70;;;;;;5010202;28;20037;-60
2022/07/01 01:12:45;;;;;;;2.25;1.75;;;24.20;61.70;;;;;;5009301;28;20037;-60
2022/07/01 01:15:17;;;;;;;1.63;1.48;;;24.10;61.70;;;;;;5015207;28;20030;-60
2022/07/01 01:17:42;;;;;;;2.38;1.70;;;24.10;61.60;;;;;;5013430;28;20121;-61
2022/07/01 01:20:08;;;;;;;1.98;1.88;;;24.10;61.60;;;;;;5011901;28;20553;-61
2022/07/01 01:22:34;;;;;;;1.92;1.63;;;24.10;61.60;;;;;;5011035;28;20077;-61
2022/07/01 01:25:00;;;;;;;1.75;1.55;;;24.10;61.60;;;;;;5009762;28;20128;-60
2022/07/01 01:27:25;;;;;;;1.60;1.50;;;24.10;61.50;;;;;;5009359;28;20053;-61
2022/07/01 01:29:51;;;;;;;1.85;1.67;;;24.10;61.70;;;;;;5011726;28;20430;-60
2022/07/01 01:32:17;;;;;;;2.00;1.80;;;24.10;61.50;;;;;;5012761;28;20121;-61
2022/07/01 01:34:42;;;;;;;2.30;1.90;;;24.10;61.50;;;;;;5012022;28;20589;-61
2022/07/01 01:37:09;;;;;;;1.77;1.67;;;24.10;61.50;;;;;;5010173;28;20132;-61
2022/07/01 01:39:37;;;;;;;2.20;2.00;;;24.10;61.40;;;;;;5008936;28;20045;-60
2022/07/01 01:42:05;;;;;;;2.25;2.05;;;24.10;61.40;;;;;;5007981;28;20045;-60
2022/07/01 01:44:30;;;;;;;2.05;1.88;;;24.10;61.40;;;;;;5011875;28;20072;-61
2022/07/01 01:46:56;;;;;;;1.85;1.75;;;24.10;61.40;;;;;;5011147;28;20439;-60
2022/07/01 01:49:22;;;;;;;2.50;2.30;;;24.10;61.30;;;;;;5013535;28;20041;-61
2022/07/01 01:51:48;;;;;;;2.00;1.80;;;24.10;61.30;;;;;;5008626;28;20046;-61
2022/07/01 01:54:14;;;;;;;2.83;1.83;;;24.10;61.30;;;;;;5012429;28;20042;-61
2022/07/01 01:56:39;;;;;;;2.55;2.20;;;24.10;61.30;;;;;;5010697;28;20045;-61
2022/07/01 01:59:05;;;;;;;2.35;1.85;;;24.10;61.20;;;;;;5011588;28;20104;-61
2022/07/01 02:01:31;;;;;;;2.55;1.75;;;24.10;61.20;;;;;;5001225;28;20046;-61
2022/07/01 02:03:58;;;;;;;2.05;1.80;;;24.10;61.20;;;;;;5005563;28;20049;-60
2022/07/01 02:06:25;;;;;;;1.88;1.77;;;24.10;61.20;;;;;;5010058;28;20049;-61
2022/07/01 02:08:51;;;;;;;1.70;1.60;;;24.00;61.10;;;;;;5007221;28;20037;-61
2022/07/01 02:11:17;;;;;;;2.08;1.70;;;24.10;61.10;;;;;;5009032;28;20047;-61
2022/07/01 02:13:44;;;;;;;1.55;1.45;;;24.10;61.20;;;;;;5007173;28;20037;-61
2022/07/01 02:16:10;;;;;;;1.80;1.70;;;24.10;61.20;;;;;;5010185;28;20059;-61
2022/07/01 02:18:36;;;;;;;2.10;1.90;;;24.10;61.10;;;;;;5011161;28;20048;-61
2022/07/01 02:21:02;;;;;;;1.73;1.63;;;24.00;61.00;;;;;;5012322;28;20037;-61
2022/07/01 02:23:29;;;;;;;2.53;1.60;;;24.00;61.00;;;;;;4991834;28;20107;-61
2022/07/01 02:25:55;;;;;;;1.55;1.45;;;24.00;61.00;;;;;;5012209;28;20049;-61
2022/07/01 02:28:21;;;;;;;3.65;1.58;;;24.00;60.90;;;;;;5007311;28;20037;-60
2022/07/01 02:30:47;;;;;;;2.03;1.50;;;24.00;60.80;;;;;;5007085;28;20046;-61
2022/07/01 02:33:12;;;;;;;1.63;1.40;;;24.00;60.80;;;;;;5008707;28;20033;-61
2022/07/01 02:35:40;;;;;;;1.63;1.35;;;24.00;60.80;;;;;;5012155;28;20478;-60
2022/07/01 02:38:07;;;;;;;2.05;1.38;;;24.00;60.70;;;;;;5010356;28;20501;-61
2022/07/01 02:40:34;;;;;;;2.47;1.50;;;24.00;60.70;;;;;;5008376;28;20049;-61
2022/07/01 02:43:00;;;;;;;1.90;1.20;;;24.00;61.10;;;;;;5008903;28;20046;-61
2022/07/01 02:45:26;;;;;;;1.55;1.45;;;24.00;60.70;;;;;;5007534;28;20050;-61
2022/07/01 02:47:51;;;;;;;1.50;1.40;;;24.00;60.60;;;;;;5008516;28;20055;-61
2022/07/01 02:50:18;;;;;;;1.35;1.20;;;24.00;60.60;;;;;;5010562;28;20080;-61
2022/07/01 02:52:45;;;;;;;1.35;1.23;;;24.00;60.50;;;;;;5009534;28;20037;-61
2022/07/01 02:55:12;;;;;;;1.80;1.20;;;24.00;60.50;;;;;;5010278;28;20037;-61
2022/07/01 02:57:39;;;;;;;0.88;0.80;;;24.00;60.60;;;;;;5006326;28;20038;-61
2022/07/01 03:00:07;;;;;;;5.22;1.15;;;24.00;60.90;;;;;;5009319;28;20226;-61
2022/07/01 03:02:33;;;;;;;1.25;1.15;;;24.00;61.10;;;;;;5013643;28;20056;-61
2022/07/01 03:04:59;;;;;;;4.30;1.40;;;24.00;61.20;;;;;;5010014;28;20046;-61
2022/07/01 03:07:24;;;;;;;1.20;1.10;;;24.10;62.00;;;;;;5010859;28;20126;-61
2022/07/01 03:09:51;;;;;;;1.30;1.10;;;24.00;61.40;;;;;;5011525;28;20049;-61
2022/07/01 03:12:29;;;;;;;1.23;1.05;;;24.10;61.50;;;;;;5009565;28;20179;-61
2022/07/01 03:15:00;;;;;;;2.85;1.20;;;24.10;61.40;;;;;;5011062;28;20029;-61
2022/07/01 03:17:28;;;;;;;2.67;1.40;;;24.10;61.40;;;;;;5007448;28;20037;-61
2022/07/01 03:19:55;;;;;;;1.42;0.98;;;24.10;61.60;;;;;;5008415;28;20034;-61
2022/07/01 03:22:22;;;;;;;3.55;1.23;;;24.10;61.70;;;;;;5010142;28;20079;-61
2022/07/01 03:24:49;;;;;;;1.83;1.50;;;24.10;61.90;;;;;;5008108;28;20053;-61
2022/07/01 03:27:15;;;;;;;1.65;1.23;;;24.10;62.00;;;;;;5011344;28;20068;-61
2022/07/01 03:29:41;;;;;;;2.80;1.58;;;24.10;62.20;;;;;;5006863;28;20033;-61
2022/07/01 03:32:11;;;;;;;2.42;1.60;;;24.20;62.20;;;;;;5007931;28;20042;-61
2022/07/01 03:34:41;;;;;;;1.73;1.63;;;24.20;62.10;;;;;;5009448;28;20091;-61
2022/07/01 03:37:09;;;;;;;2.30;1.80;;;24.10;62.00;;;;;;5010490;28;20033;-61
2022/07/01 03:39:36;;;;;;;1.60;1.50;;;24.10;62.00;;;;;;5008455;28;20469;-61
2022/07/01 03:42:04;;;;;;;2.05;1.90;;;24.20;62.10;;;;;;5010094;28;20048;-61
2022/07/01 03:44:30;;;;;;;2.78;1.98;;;24.20;62.10;;;;;;5006433;28;20057;-61
2022/07/01 03:46:56;;;;;;;2.67;2.03;;;24.20;62.00;;;;;;5008933;28;20096;-61
2022/07/01 03:49:22;;;;;;;2.45;1.58;;;24.20;62.00;;;;;;5009745;28;20133;-61
2022/07/01 03:51:49;;;;;;;2.25;2.05;;;24.10;62.00;;;;;;5009869;28;20403;-61
2022/07/01 03:54:30;;;;;;;2.10;1.70;;;24.20;62.00;;;;;;5007652;28;20119;-61
2022/07/01 03:56:57;;;;;;;2.83;2.33;;;24.10;62.00;;;;;;5009539;28;20042;-60
2022/07/01 03:59:24;;;;;;;4.40;2.58;;;24.10;61.80;;;;;;5007794;28;20082;-61
2022/07/01 04:01:49;;;;;;;3.88;2.25;;;24.20;61.70;;;;;;5002791;28;20508;-61
2022/07/01 04:04:15;;;;;;;4.82;1.80;;;24.10;61.60;;;;;;5009353;28;20041;-61
2022/07/01 04:06:42;;;;;;;6.22;1.90;;;24.20;61.60;;;;;;5009066;28;20387;-61
2022/07/01 04:09:08;;;;;;;3.58;2.35;;;24.20;61.60;;;;;;5010552;28;20869;-61
2022/07/01 04:11:33;;;;;;;4.20;2.13;;;24.20;61.50;;;;;;5008487;28;20042;-61
2022/07/01 04:13:59;;;;;;;4.82;2.35;;;24.20;61.50;;;;;;5007186;28;20244;-61
2022/07/01 04:16:25;;;;;;;3.30;2.35;;;24.20;61.50;;;;;;5006926;28;20226;-61
2022/07/01 04:18:52;;;;;;;3.67;2.33;;;24.20;61.60;;;;;;5010839;28;20497;-61
2022/07/01 04:24:02;;;;;;;3.15;2.60;;;24.10;61.50;;;;;;5009583;28;20616;-61
2022/07/01 04:26:27;;;;;;;2.85;2.65;;;24.20;62.20;;;;;;5010195;28;20049;-61
2022/07/01 04:28:57;;;;;;;2.90;2.70;;;24.10;61.30;;;;;;5009505;28;20371;-61
2022/07/01 04:31:22;;;;;;;3.20;2.88;;;24.10;61.20;;;;;;5010056;28;20030;-61
2022/07/01 04:33:49;;;;;;;2.80;2.60;;;24.10;61.20;;;;;;5015911;28;20044;-61
2022/07/01 04:36:15;;;;;;;2.83;2.63;;;24.10;61.20;;;;;;5010654;28;20038;-60
2022/07/01 04:38:41;;;;;;;4.63;3.42;;;24.10;61.20;;;;;;5012811;28;20045;-61
2022/07/01 04:43:51;;;;;;;4.50;3.40;;;24.10;61.10;;;;;;5010266;28;20112;-62
2022/07/01 04:46:17;;;;;;;3.00;2.80;;;24.10;61.00;;;;;;5009982;28;20053;-61
2022/07/01 04:48:42;;;;;;;3.92;3.53;;;24.10;61.10;;;;;;5013058;28;20504;-61
2022/07/01 04:51:08;;;;;;;3.65;3.33;;;24.00;61.10;;;;;;5008429;28;20529;-61
2022/07/01 04:53:34;;;;;;;3.42;3.13;;;24.10;60.90;;;;;;5012102;28;20038;-60
2022/07/01 04:56:00;;;;;;;4.18;3.58;;;24.00;60.80;;;;;;5010492;28;20470;-61
2022/07/01 04:58:25;;;;;;;3.88;3.58;;;24.10;60.80;;;;;;5012096;28;20360;-61
2022/07/01 05:00:51;;;;;;;3.85;3.55;;;24.00;60.70;;;;;;5009630;28;20540;-61
2022/07/01 05:03:17;;;;;;;3.75;3.45;;;24.10;60.70;;;;;;5009091;28;20042;-61
2022/07/01 05:05:43;;;;;;;4.10;3.70;;;24.10;60.60;;;;;;5011908;28;20041;-61
2022/07/01 05:08:09;;;;;;;4.55;4.15;;;24.00;60.40;;;;;;5011405;28;20045;-60
2022/07/01 05:10:34;;;;;;;4.80;4.40;;;24.10;60.50;;;;;;5011460;28;21757;-61
2022/07/01 05:13:00;;;;;;;4.63;4.00;;;24.00;60.50;;;;;;5010338;28;20026;-61
2022/07/01 05:15:26;;;;;;;4.40;4.00;;;24.00;60.40;;;;;;5011328;28;20544;-61
2022/07/01 05:23:20;;;;;;;6.75;3.92;;;24.10;60.40;;;;;;5012039;28;20613;-61
2022/07/01 05:25:47;;;;;;;4.10;3.72;;;24.00;60.30;;;;;;5007414;28;20046;-61
2022/07/01 05:28:12;;;;;;;4.93;3.40;;;24.00;60.20;;;;;;5010919;28;20081;-60
2022/07/01 05:30:38;;;;;;;3.90;3.55;;;24.00;61.00;;;;;;5008388;28;20052;-60
2022/07/01 05:33:04;;;;;;;4.55;3.90;;;24.00;60.20;;;;;;5006577;28;20099;-61
2022/07/01 05:35:30;;;;;;;4.10;3.80;;;24.00;60.10;;;;;;5010138;28;20103;-61
2022/07/01 05:37:56;;;;;;;4.53;4.10;;;24.00;60.00;;;;;;5012833;28;20042;-61
2022/07/01 05:40:22;;;;;;;4.57;3.92;;;24.00;60.00;;;;;;5011668;28;20044;-61
2022/07/01 05:42:48;;;;;;;4.50;4.10;;;24.00;60.00;;;;;;5009393;28;20076;-60
2022/07/01 05:45:14;;;;;;;5.30;3.95;;;24.00;60.00;;;;;;5006990;28;20517;-61
2022/07/01 05:47:40;;;;;;;5.15;4.20;;;24.00;59.90;;;;;;5009876;28;20508;-60
2022/07/01 05:50:06;;;;;;;4.47;3.80;;;24.00;59.80;;;;;;5010840;28;21021;-60
2022/07/01 05:52:32;;;;;;;4.00;3.70;;;24.00;59.80;;;;;;5009921;28;20072;-60
2022/07/01 05:54:57;;;;;;;4.63;4.22;;;24.00;59.90;;;;;;5011652;28;20572;-60
2022/07/01 05:57:23;;;;;;;4.07;3.78;;;24.00;59.80;;;;;;5009089;28;20089;-61
2022/07/01 05:59:49;;;;;;;4.80;4.28;;;24.00;59.80;;;;;;5008589;28;20037;-60
2022/07/01 06:02:14;;;;;;;4.40;3.92;;;24.00;59.70;;;;;;5005903;28;20038;-61
2022/07/01 06:04:43;;;;;;;5.00;4.47;;;24.00;59.60;;;;;;5012460;28;20137;-61
2022/07/01 06:07:10;;;;;;;4.07;3.78;;;24.00;59.80;;;;;;5010513;28;20736;-61
2022/07/01 06:09:36;;;;;;;9.65;4.68;;;24.00;59.90;;;;;;5013174;28;20148;-61
2022/07/01 06:12:02;;;;;;;5.15;4.75;;;24.00;60.00;;;;;;5012259;28;20077;-61
2022/07/01 06:14:28;;;;;;;5.13;4.63;;;24.00;60.00;;;;;;5009494;28;20046;-61
2022/07/01 06:16:54;;;;;;;5.30;4.90;;;24.00;60.00;;;;;;5011691;28;20049;-61
2022/07/01 06:19:20;;;;;;;4.72;4.30;;;24.00;59.90;;;;;;5008358;28;20047;-61
2022/07/01 06:21:46;;;;;;;6.70;4.43;;;24.00;59.90;;;;;;5009841;28;20050;-61
2022/07/01 06:24:12;;;;;;;4.47;4.18;;;24.00;59.80;;;;;;5004490;28;20257;-61
2022/07/01 06:26:37;;;;;;;4.57;4.28;;;24.00;59.90;;;;;;5007468;28;20041;-61
2022/07/01 06:29:03;;;;;;;4.35;3.95;;;24.00;59.90;;;;;;5010526;28;20069;-61
2022/07/01 06:31:29;;;;;;;5.20;4.70;;;24.00;59.80;;;;;;5009267;28;20041;-61
2022/07/01 06:33:55;;;;;;;6.32;4.65;;;24.00;60.00;;;;;;5010619;28;20546;-60
2022/07/01 06:36:21;;;;;;;4.70;4.25;;;24.00;60.00;;;;;;5012386;28;20041;-61
2022/07/01 06:38:47;;;;;;;5.90;4.88;;;24.00;59.90;;;;;;5010319;28;20635;-60
2022/07/01 06:41:28;;;;;;;4.80;4.40;;;24.10;59.80;;;;;;5011921;28;20064;-61
2022/07/01 06:44:02;;;;;;;5.28;4.78;;;24.00;60.40;;;;;;5009541;28;20765;-61
2022/07/01 06:46:29;;;;;;;5.70;4.88;;;24.10;59.80;;;;;;5011233;28;20049;-61
2022/07/01 06:48:55;;;;;;;5.57;4.43;;;24.00;59.70;;;;;;5007061;28;20049;-61
2022/07/01 06:51:21;;;;;;;5.47;4.82;;;24.10;59.70;;;;;;5009066;28;20131;-61
2022/07/01 06:53:47;;;;;;;6.82;5.25;;;24.00;59.70;;;;;;5009691;28;20045;-61
2022/07/01 06:56:13;;;;;;;5.45;4.95;;;24.10;59.90;;;;;;5010261;28;20041;-61
2022/07/01 06:58:40;;;;;;;6.97;6.28;;;24.10;59.80;;;;;;5007134;28;20025;-61
2022/07/01 07:01:05;;;;;;;5.68;4.80;;;24.10;59.60;;;;;;5008395;28;20053;-61
2022/07/01 07:03:32;;;;;;;6.00;5.50;;;24.10;59.90;;;;;;5006301;28;20038;-61
2022/07/01 07:06:02;;;;;;;5.68;4.82;;;24.10;59.80;;;;;;5008919;28;20156;-61
2022/07/01 07:08:32;;;;;;;5.63;5.13;;;24.10;59.90;;;;;;5008870;28;20111;-61
2022/07/01 07:10:58;;;;;;;6.82;5.35;;;24.10;59.90;;;;;;5001217;28;20050;-61
2022/07/01 07:13:25;;;;;;;5.53;5.00;;;24.10;59.90;;;;;;5010601;28;20030;-61
2022/07/01 07:15:50;;;;;;;8.85;5.63;;;24.10;59.90;;;;;;5008195;28;20061;-61
2022/07/01 07:18:16;;;;;;;6.15;5.13;;;24.10;59.70;;;;;;5004943;28;20037;-61
2022/07/01 07:20:42;;;;;;;6.93;5.03;;;24.10;59.80;;;;;;4986833;28;20643;-61
2022/07/01 07:23:08;;;;;;;7.43;5.53;;;24.10;59.90;;;;;;4990349;28;20042;-61
2022/07/01 07:25:34;;;;;;;8.65;5.72;;;24.10;59.90;;;;;;4998929;28;20121;-60
2022/07/01 07:28:00;;;;;;;6.20;5.60;;;24.10;59.90;;;;;;5005692;28;20654;-61
2022/07/01 07:30:25;;;;;;;9.27;6.47;;;24.10;59.90;;;;;;5007307;28;20037;-61
2022/07/01 07:32:51;;;;;;;10.27;6.15;;;24.10;59.90;;;;;;5005828;28;20486;-60
2022/07/01 07:35:17;;;;;;;7.22;5.90;;;24.10;60.00;;;;;;5008833;28;20037;-60
2022/07/01 07:37:43;;;;;;;7.70;5.70;;;24.10;60.00;;;;;;5008179;28;20034;-61
2022/07/01 07:40:11;;;;;;;5.80;4.82;;;24.10;60.00;;;;;;5008145;28;20120;-60
2022/07/01 07:42:38;;;;;;;6.95;6.00;;;24.10;60.00;;;;;;5005732;28;20124;-61
2022/07/01 07:45:06;;;;;;;6.20;5.57;;;24.10;60.00;;;;;;5006234;28;20054;-61
2022/07/01 07:47:35;;;;;;;7.18;6.00;;;24.20;60.00;;;;;;5008589;28;20128;-61
2022/07/01 07:50:02;;;;;;;8.75;5.93;;;24.10;59.90;;;;;;5005360;28;20048;-62
2022/07/01 07:52:27;;;;;;;6.38;5.88;;;24.20;60.00;;;;;;5006145;28;20034;-61
2022/07/01 07:54:53;;;;;;;8.55;6.55;;;24.10;59.90;;;;;;5007338;28;20381;-62
2022/07/01 07:57:18;;;;;;;7.93;6.32;;;24.20;60.00;;;;;;5006061;28;20041;-61
2022/07/01 07:59:44;;;;;;;7.10;6.22;;;24.20;60.00;;;;;;5000249;28;20119;-63
2022/07/01 08:02:10;;;;;;;6.68;5.60;;;24.10;60.00;;;;;;4979186;28;20048;-60
2022/07/01 08:04:36;;;;;;;7.03;6.32;;;24.20;60.50;;;;;;4989479;28;20406;-62
2022/07/01 08:07:02;;;;;;;7.28;5.38;;;24.20;60.00;;;;;;5009878;28;20056;-61
2022/07/01 08:09:29;;;;;;;6.40;5.63;;;24.20;60.40;;;;;;4993569;28;20053;-61
2022/07/01 08:11:54;;;;;;;6.93;6.20;;;24.20;60.20;;;;;;4992815;28;20056;-61
2022/07/01 08:14:20;;;;;;;7.22;6.53;;;24.20;60.20;;;;;;5008454;28;20033;-61
2022/07/01 08:16:46;;;;;;;7.18;6.22;;;24.20;60.30;;;;;;5010800;28;20142;-61
2022/07/01 08:19:11;;;;;;;6.82;6.22;;;24.20;60.40;;;;;;5008897;28;20037;-61
2022/07/01 08:21:37;;;;;;;7.20;6.38;;;24.20;60.50;;;;;;5008524;28;20038;-61
2022/07/01 08:24:03;;;;;;;6.85;6.20;;;24.20;60.50;;;;;;5012054;28;20224;-61
2022/07/01 08:26:30;;;;;;;6.90;5.95;;;24.20;60.50;;;;;;5023175;28;20148;-62
2022/07/01 08:28:56;;;;;;;6.57;5.95;;;24.20;60.50;;;;;;5011275;28;20041;-61
2022/07/01 08:31:21;;;;;;;6.70;6.10;;;24.20;60.60;;;;;;5006472;28;20046;-61
2022/07/01 08:33:47;;;;;;;6.55;5.88;;;24.20;60.60;;;;;;5007612;28;20069;-61
2022/07/01 08:36:13;;;;;;;9.02;6.68;;;24.20;60.60;;;;;;5009889;28;20667;-62
2022/07/01 08:38:39;;;;;;;7.28;6.53;;;24.20;60.50;;;;;;5010181;28;20045;-61
2022/07/01 08:41:05;;;;;;;6.47;5.45;;;24.20;60.80;;;;;;5009516;28;20100;-61
2022/07/01 08:43:31;;;;;;;6.55;5.85;;;24.20;60.70;;;;;;5009101;28;20042;-61
2022/07/01 08:46:01;;;;;;;9.90;6.70;;;24.30;60.90;;;;;;5006787;28;20833;-61
2022/07/01 08:48:27;;;;;;;6.53;5.93;;;24.30;60.90;;;;;;4996676;28;20048;-61
2022/07/01 08:50:52;;;;;;;10.90;5.90;;;24.30;60.90;;;;;;5007087;28;20748;-63
2022/07/01 08:53:18;;;;;;;6.65;5.57;;;24.30;60.90;;;;;;5005305;28;20094;-60
2022/07/01 08:58:28;;;;;;;7.32;5.68;;;24.30;60.70;;;;;;5009803;28;20057;-61
2022/07/01 09:01:17;;;;;;;6.88;5.32;;;24.30;60.60;;;;;;5010210;28;20065;-61
2022/07/01 09:03:45;;;;;;;6.15;5.47;;;24.30;60.40;;;;;;5001940;28;20041;-62
2022/07/01 09:06:14;;;;;;;6.50;5.88;;;24.30;60.50;;;;;;5006857;28;20093;-61
2022/07/01 09:08:40;;;;;;;7.35;5.60;;;24.30;60.50;;;;;;5009225;28;20049;-61
2022/07/01 09:11:13;;;;;;;7.10;6.20;;;24.30;60.40;;;;;;5013645;28;20038;-61
2022/07/01 09:13:40;;;;;;;8.75;5.57;;;24.30;60.50;;;;;;5010813;28;20083;-61
2022/07/01 09:16:16;;;;;;;7.22;5.47;;;24.20;60.40;;;;;;5007651;28;20034;-61
2022/07/01 09:19:02;;;;;;;7.32;5.00;;;24.20;60.60;;;;;;5007812;28;20040;-61
2022/07/01 09:21:29;;;;;;;6.18;4.95;;;24.30;60.60;;;;;;5010697;28;20168;-62
2022/07/01 09:23:56;;;;;;;11.25;5.75;;;24.20;60.50;;;;;;5007656;28;20049;-62
2022/07/01 09:26:21;;;;;;;15.82;5.60;;;24.20;60.20;;;;;;5008604;28;20048;-62
2022/07/01 09:28:57;;;;;;;7.90;5.22;;;24.20;60.10;;;;;;5006582;28;20476;-62
2022/07/01 09:31:33;;;;;;;12.32;5.78;;;24.20;60.00;;;;;;5019934;28;20064;-62
2022/07/01 09:34:07;;;;;;;10.57;4.75;;;24.20;59.80;;;;;;5007061;28;20878;-62
2022/07/01 09:36:37;;;;;;;8.32;5.18;;;24.20;59.30;;;;;;5005151;28;20041;-62
2022/07/01 09:39:04;;;;;;;6.88;4.95;;;24.20;58.80;;;;;;4989146;28;20100;-62
2022/07/01 09:41:38;;;;;;;6.70;4.53;;;24.20;58.10;;;;;;5011378;28;20050;-62
2022/07/01 09:44:08;;;;;;;5.93;4.43;;;24.20;57.80;;;;;;4993262;28;20393;-61
2022/07/01 09:46:34;;;;;;;6.70;4.63;;;24.20;57.70;;;;;;5008543;28;20064;-62
2022/07/01 09:49:00;;;;;;;7.60;4.50;;;24.10;57.40;;;;;;5010858;28;20041;-62
2022/07/01 09:51:28;;;;;;;5.43;4.40;;;24.10;57.20;;;;;;5008812;28;20038;-62
2022/07/01 09:53:54;;;;;;;4.93;4.30;;;24.20;56.80;;;;;;5011292;28;20041;-62
2022/07/01 09:56:20;;;;;;;5.43;4.20;;;24.10;56.70;;;;;;5012161;28;20374;-62
2022/07/01 09:58:45;;;;;;;5.75;4.00;;;24.10;56.90;;;;;;5009964;28;20048;-60
2022/07/01 10:01:14;;;;;;;5.93;4.25;;;24.10;55.90;;;;;;5010221;28;20115;-62
2022/07/01 10:03:41;;;;;;;4.65;3.65;;;24.00;55.10;;;;;;5007565;28;20045;-61
2022/07/01 10:06:06;;;;;;;5.13;3.70;;;24.00;54.60;;;;;;5007247;28;20037;-61
2022/07/01 10:08:44;;;;;;;7.22;3.50;;;23.90;54.50;;;;;;5012300;28;20100;-61
2022/07/01 10:11:36;;;;;;;4.80;3.83;;;23.90;54.20;;;;;;5010879;28;20286;-63
2022/07/01 10:14:07;;;;;;;4.20;3.10;;;23.80;53.20;;;;;;5008292;28;20042;-62
2022/07/01 10:16:35;;;;;;;4.97;3.08;;;23.80;53.00;;;;;;5010484;28;20041;-62
2022/07/01 10:19:25;;;;;;;4.53;3.17;;;23.70;52.70;;;;;;5007411;28;20035;-62
2022/07/01 10:21:56;;;;;;;6.13;3.33;;;23.70;52.50;;;;;;5009299;28;20049;-61
2022/07/01 10:24:23;;;;;;;6.18;3.50;;;23.60;52.80;;;;;;5012278;28;20037;-62
2022/07/01 10:26:49;;;;;;;4.82;2.97;;;23.60;52.90;;;;;;5009929;28;20674;-61
2022/07/01 10:29:34;;;;;;;9.05;3.53;;;23.60;53.00;;;;;;5009547;28;20037;-61
2022/07/01 10:32:26;;;;;;;2.88;2.60;;;23.60;52.30;;;;;;5009202;28;20030;-62
2022/07/01 10:35:04;;;;;;;2.58;2.28;;;23.50;52.40;;;;;;4986738;28;20050;-63
2022/07/01 10:37:30;;;;;;;4.35;2.40;;;23.50;52.00;;;;;;4981895;28;20444;-63
2022/07/01 10:40:01;;;;;;;4.65;1.92;;;23.50;52.20;;;;;;4977067;28;20057;-62
2022/07/01 10:42:55;;;;;;;;;;;23.40;51.60;;;;;;4986122;28;20465;-63
2022/07/01 10:45:21;;;;;;;3.58;2.00;;;23.40;51.10;;;;;;4994034;28;19924;-62
2022/07/01 10:47:46;;;;;;;2.75;2.10;;;23.30;52.60;;;;;;5002914;28;20128;-63
2022/07/01 10:50:18;;;;;;;4.43;1.98;;;23.40;52.90;;;;;;5004637;28;20038;-63
2022/07/01 10:53:01;;;;;;;4.72;2.08;;;23.40;52.60;;;;;;5007692;28;20042;-63
2022/07/01 10:55:43;;;;;;;3.13;1.77;;;23.40;52.10;;;;;;5010277;28;20498;-63
2022/07/01 10:58:10;;;;;;;2.80;2.17;;;23.40;51.90;;;;;;5007073;28;20042;-63
2022/07/01 11:00:39;;;;;;;3.80;2.10;;;23.40;51.80;;;;;;5008186;28;20052;-61
2022/07/01 11:03:10;;;;;;;4.03;1.83;;;23.30;51.60;;;;;;5008596;28;20099;-61
2022/07/01 11:05:36;;;;;;;;;;;23.30;51.50;;;;;;4993419;28;20046;-62
2022/07/01 11:08:05;;;;;;;4.57;1.98;;;23.20;50.80;;;;;;5011333;28;20112;-63
2022/07/01 11:10:31;;;;;;;4.32;1.90;;;23.20;51.80;;;;;;5009240;28;20518;-63
2022/07/01 11:12:56;;;;;;;5.05;1.63;;;23.20;52.00;;;;;;5007478;28;20049;-63
2022/07/01 11:15:22;;;;;;;5.90;2.10;;;23.20;52.10;;;;;;4995978;28;20116;-63
2022/07/01 11:17:49;;;;;;;3.95;1.48;;;23.20;52.20;;;;;;4987041;28;20041;-63
2022/07/01 11:20:16;;;;;;;3.53;1.60;;;23.20;51.90;;;;;;5009167;28;20088;-63
2022/07/01 11:22:41;;;;;;;5.63;1.80;;;23.20;51.90;;;;;;5007869;28;20678;-63
2022/07/01 11:25:12;;;;;;;3.00;1.48;;;23.20;51.80;;;;;;5007423;28;20040;-64
2022/07/01 11:27:38;;;;;;;5.22;1.63;;;23.20;52.00;;;;;;5006848;28;20771;-64
2022/07/01 11:30:11;;;;;;;4.20;1.70;;;23.20;52.40;;;;;;5005010;28;20421;-70
2022/07/01 11:32:42;;;;;;;1.55;1.20;;;23.30;52.40;;;;;;5007645;28;20108;-63
2022/07/01 11:40:55;;;;;;;3.20;1.00;;;23.40;52.90;;;;;;5011094;28;20075;-63
2022/07/01 11:43:26;;;;;;;1.45;1.10;;;23.50;53.00;;;;;;5012966;28;22428;-63
2022/07/01 11:45:53;;;;;;;2.72;1.50;;;23.50;53.00;;;;;;5012592;28;20048;-63
2022/07/01 11:48:32;;;;;;;5.93;1.60;;;23.60;53.00;;;;;;5010426;28;20093;-63
2022/07/01 11:50:59;;;;;;;5.57;1.30;;;23.60;52.90;;;;;;5009519;28;20407;-63
2022/07/01 11:53:25;;;;;;;4.60;1.42;;;23.60;53.00;;;;;;5013166;28;20025;-63
2022/07/01 11:55:51;;;;;;;6.78;1.10;;;23.60;53.10;;;;;;5013070;28;20055;-62
2022/07/01 11:58:17;;;;;;;4.55;1.13;;;23.70;53.10;;;;;;5012702;28;20038;-63
2022/07/01 12:00:42;;;;;;;3.35;1.17;;;23.70;53.10;;;;;;5026762;28;20052;-63
2022/07/01 12:03:09;;;;;;;2.38;0.98;;;23.70;53.20;;;;;;5013656;28;20041;-63
2022/07/01 12:05:35;;;;;;;3.05;1.10;;;23.80;53.30;;;;;;5009500;28;20052;-63
2022/07/01 12:08:02;;;;;;;3.10;1.05;;;23.80;53.50;;;;;;5027819;28;20092;-62
2022/07/01 12:10:29;;;;;;;2.45;1.00;;;23.70;53.30;;;;;;5014877;28;20049;-63
2022/07/01 12:12:55;;;;;;;3.60;1.25;;;23.70;53.30;;;;;;5015650;28;20547;-63
2022/07/01 12:15:21;;;;;;;3.55;1.10;;;23.80;53.30;;;;;;5012605;28;20041;-63
2022/07/01 12:17:47;;;;;;;2.60;1.25;;;23.70;53.20;;;;;;5011533;28;20036;-62
2022/07/01 12:20:12;;;;;;;4.78;1.10;;;23.80;53.30;;;;;;5013052;28;20492;-63
2022/07/01 12:22:38;;;;;;;2.47;0.93;;;23.80;53.30;;;;;;5012060;28;20724;-63
2022/07/01 12:25:10;;;;;;;2.45;1.00;;;23.80;53.50;;;;;;5014437;28;20105;-63
2022/07/01 12:27:38;;;;;;;1.35;0.80;;;23.80;53.50;;;;;;4995408;28;20065;-63
2022/07/01 12:30:06;;;;;;;4.07;1.13;;;23.80;53.80;;;;;;5014314;28;20038;-62
2022/07/01 12:32:35;;;;;;;4.90;0.98;;;23.80;53.70;;;;;;5012732;28;20042;-63
2022/07/01 12:35:33;;;;;;;2.47;0.80;;;23.80;53.70;;;;;;5010990;28;20084;-62
2022/07/01 12:37:51;;;;;;;;;;;23.80;53.60;;;;;;5011484;28;20084;-63
2022/07/01 12:40:27;;;;;;;2.42;1.05;;;23.80;54.00;;;;;;5013106;28;19973;-63
2022/07/01 12:42:53;;;;;;;6.50;1.35;;;23.80;54.00;;;;;;5013538;28;20052;-62
2022/07/01 12:45:24;;;;;;;5.28;1.02;;;23.80;54.00;;;;;;5012147;28;20946;-63
2022/07/01 12:47:52;;;;;;;2.55;0.65;;;23.80;53.90;;;;;;5009258;28;20088;-62
2022/07/01 12:50:33;;;;;;;4.10;1.10;;;23.80;54.10;;;;;;5007335;28;20060;-63
2022/07/01 12:53:11;;;;;;;2.45;0.75;;;23.80;54.00;;;;;;5011485;28;20041;-63
2022/07/01 12:55:49;;;;;;;4.80;0.85;;;23.80;54.00;;;;;;5012522;28;20477;-63
2022/07/01 12:58:23;;;;;;;6.65;1.20;;;23.90;54.00;;;;;;4992247;28;20037;-63
2022/07/01 13:00:51;;;;;;;3.63;0.93;;;23.90;54.00;;;;;;5013805;28;20045;-63
2022/07/01 13:03:22;;;;;;;3.38;0.90;;;23.90;54.00;;;;;;5010141;28;20045;-63
2022/07/01 13:05:49;;;;;;;1.67;0.80;;;23.90;54.00;;;;;;5009171;28;20490;-63
2022/07/01 13:08:15;;;;;;;2.08;0.65;;;23.90;54.00;;;;;;5013972;28;20045;-63
2022/07/01 13:10:41;;;;;;;4.93;0.77;;;23.90;54.10;;;;;;5009841;28;20480;-62